Palm Village, Texas
Current Conditions -  °F | °C
As of 10:53 AM on Monday 24 Nov 2014 (Local Time) from KBRO Reporting Station
Clear Clear  
Wind Chill: 65°   Ceiling: Unl
Heat Index: 65°   Visibility: 10mi
Dew Point: 51°   Wind: 15mph
Humidity: 61%   Direction: 360°N
Pressure: 30.04"   Gusts: 31mph
Location:  26.0002°N, 97.5729°W
Report Text: KBRO 241653Z 36013G27KT 10SM CLR 18/11 A3004 RMK AO2 PK WND 35029/1558 SLP172 T01830106
Loading
Personal Weather Stations






























Interactive Weather Map New forecast layout! Learn more

10-Day Weather Forecast

Advertisements
Track Severe Weather on mobile